首页
METAR-TAF:

METAR-TAF

机场 :

Fort Dodge, 艾奥瓦州, 美国

纬度: 42-33N, 经度: 094-11W, 海拔: 354米

当前天气观测

该预报发布于57分钟前的21:56 UTC
风速6节,风向东北
温度 1°C
湿度 86%
气压 1014 hPa
能見度: 12.9公里
阴天层高于900英尺

METAR: KFOD 232156Z AUTO 04006KT 8SM OVC009 01/M01 A2994 RMK AO2 CIG 006V012 SLP178 T00061006 FZRANO

时间: 16:53 (22:53 UTC)

预报

该预报发布于2小时和54分钟前的19:59 UTC
预报有效从23日的 20点(UTC)到 24日的 18点(UTC)
风速4节,风向东转东北
能見度: 9.7公里
多云层高于500英尺
阴天层高于18000英尺
轻雾
从 23日的 2300点(UTC)
风速5节,风向北转东北
能見度: 3.2公里
阴天层高于500英尺
轻雾
从 24日的 0800点(UTC)
风速7节,风向
能見度: 1.2公里
阴天层高于300英尺
轻雾
从 24日的 1400点(UTC)
风速8节,风向
能見度: 3.2公里
阴天层高于300英尺
轻雾

TAF: KFOD 231959Z 2320/2418 06004KT 6SM BR BKN005 OVC180 FM232300 03005KT 2SM BR OVC005 FM240800 36007KT 3/4SM BR OVC003 FM241400 35008KT 2SM BR OVC003

超过4000个机场的气象观测和天气预报(METAR&TAF报告)。

可查询的气象台以黄色和红色小点在地图上表示。

将鼠标移到小点上方,可查看气象台名称。

然后点击查看天气观测和预报。

如需切换地图:点击带黑十字的绿色按钮放大地图;点击带横线的绿色按钮缩小地图;或者点击绿色箭头查看邻近地区的地图。


METAR-TAF: